sensor_id;sensor_type;location;lat;lon;timestamp;P1;durP1;ratioP1;P2;durP2;ratioP2
76262;SDS011;65080;50.908;6.916;2023-02-15T00:01:05;32.07;;;18.80;;
76262;SDS011;65080;50.908;6.916;2023-02-15T00:03:34;35.20;;;19.80;;
76262;SDS011;65080;50.908;6.916;2023-02-15T00:06:03;32.00;;;19.00;;
76262;SDS011;65080;50.908;6.916;2023-02-15T00:08:31;33.03;;;19.40;;
76262;SDS011;65080;50.908;6.916;2023-02-15T00:11:04;33.03;;;20.07;;
76262;SDS011;65080;50.908;6.916;2023-02-15T00:13:32;34.90;;;19.43;;
76262;SDS011;65080;50.908;6.916;2023-02-15T00:16:07;28.13;;;18.60;;
76262;SDS011;65080;50.908;6.916;2023-02-15T00:18:36;29.90;;;17.47;;
76262;SDS011;65080;50.908;6.916;2023-02-15T00:21:06;29.70;;;19.20;;
76262;SDS011;65080;50.908;6.916;2023-02-15T00:23:36;28.37;;;17.57;;
76262;SDS011;65080;50.908;6.916;2023-02-15T00:26:05;31.93;;;18.40;;
76262;SDS011;65080;50.908;6.916;2023-02-15T00:28:34;32.13;;;19.07;;
76262;SDS011;65080;50.908;6.916;2023-02-15T00:31:07;31.50;;;18.30;;
76262;SDS011;65080;50.908;6.916;2023-02-15T00:33:38;33.13;;;19.67;;
76262;SDS011;65080;50.908;6.916;2023-02-15T00:36:07;30.37;;;17.87;;
76262;SDS011;65080;50.908;6.916;2023-02-15T00:38:36;29.90;;;18.90;;
76262;SDS011;65080;50.908;6.916;2023-02-15T00:41:05;31.57;;;18.30;;
76262;SDS011;65080;50.908;6.916;2023-02-15T00:43:35;32.67;;;20.03;;
76262;SDS011;65080;50.908;6.916;2023-02-15T00:46:04;33.13;;;19.03;;
76262;SDS011;65080;50.908;6.916;2023-02-15T00:48:34;29.37;;;18.20;;
76262;SDS011;65080;50.908;6.916;2023-02-15T00:51:02;32.33;;;18.53;;
76262;SDS011;65080;50.908;6.916;2023-02-15T00:53:30;36.10;;;19.80;;
76262;SDS011;65080;50.908;6.916;2023-02-15T00:55:59;32.07;;;19.90;;
76262;SDS011;65080;50.908;6.916;2023-02-15T00:58:27;30.00;;;18.97;;
76262;SDS011;65080;50.908;6.916;2023-02-15T01:01:01;32.57;;;19.90;;
76262;SDS011;65080;50.908;6.916;2023-02-15T01:03:31;34.40;;;19.37;;
76262;SDS011;65080;50.908;6.916;2023-02-15T01:06:02;31.33;;;18.50;;
76262;SDS011;65080;50.908;6.916;2023-02-15T01:08:31;31.23;;;19.07;;
76262;SDS011;65080;50.908;6.916;2023-02-15T01:11:02;34.00;;;19.53;;
76262;SDS011;65080;50.908;6.916;2023-02-15T01:13:31;33.20;;;18.97;;
76262;SDS011;65080;50.908;6.916;2023-02-15T01:16:00;29.83;;;17.90;;
76262;SDS011;65080;50.908;6.916;2023-02-15T01:18:30;31.33;;;19.10;;
76262;SDS011;65080;50.908;6.916;2023-02-15T01:21:00;30.07;;;18.20;;
76262;SDS011;65080;50.908;6.916;2023-02-15T01:23:36;29.40;;;17.57;;
76262;SDS011;65080;50.908;6.916;2023-02-15T01:26:05;31.57;;;18.93;;
76262;SDS011;65080;50.908;6.916;2023-02-15T01:28:33;30.10;;;17.50;;
76262;SDS011;65080;50.908;6.916;2023-02-15T01:31:04;30.37;;;17.43;;
76262;SDS011;65080;50.908;6.916;2023-02-15T01:33:34;28.60;;;17.60;;
76262;SDS011;65080;50.908;6.916;2023-02-15T01:36:05;27.90;;;18.40;;
76262;SDS011;65080;50.908;6.916;2023-02-15T01:38:33;30.83;;;17.80;;
76262;SDS011;65080;50.908;6.916;2023-02-15T01:41:02;29.73;;;18.00;;
76262;SDS011;65080;50.908;6.916;2023-02-15T01:43:51;29.63;;;18.13;;
76262;SDS011;65080;50.908;6.916;2023-02-15T01:46:22;30.77;;;17.97;;
76262;SDS011;65080;50.908;6.916;2023-02-15T01:48:55;32.43;;;17.30;;
76262;SDS011;65080;50.908;6.916;2023-02-15T01:51:29;30.50;;;18.80;;
76262;SDS011;65080;50.908;6.916;2023-02-15T01:54:01;29.03;;;17.40;;
76262;SDS011;65080;50.908;6.916;2023-02-15T01:56:33;32.97;;;18.40;;
76262;SDS011;65080;50.908;6.916;2023-02-15T01:59:04;30.00;;;16.60;;
76262;SDS011;65080;50.908;6.916;2023-02-15T02:01:35;35.33;;;18.43;;
76262;SDS011;65080;50.908;6.916;2023-02-15T02:04:05;29.50;;;17.40;;
76262;SDS011;65080;50.908;6.916;2023-02-15T02:06:42;29.53;;;18.00;;
76262;SDS011;65080;50.908;6.916;2023-02-15T02:09:14;32.20;;;18.00;;
76262;SDS011;65080;50.908;6.916;2023-02-15T02:11:42;31.60;;;18.27;;
76262;SDS011;65080;50.908;6.916;2023-02-15T02:14:15;32.27;;;19.43;;
76262;SDS011;65080;50.908;6.916;2023-02-15T02:16:46;29.33;;;16.63;;
76262;SDS011;65080;50.908;6.916;2023-02-15T02:19:26;28.67;;;17.93;;
76262;SDS011;65080;50.908;6.916;2023-02-15T02:22:28;32.73;;;19.50;;
76262;SDS011;65080;50.908;6.916;2023-02-15T02:25:23;31.50;;;17.53;;
76262;SDS011;65080;50.908;6.916;2023-02-15T02:28:18;30.60;;;17.10;;
76262;SDS011;65080;50.908;6.916;2023-02-15T02:33:59;30.97;;;17.47;;
76262;SDS011;65080;50.908;6.916;2023-02-15T02:36:34;34.83;;;20.07;;
76262;SDS011;65080;50.908;6.916;2023-02-15T02:39:10;29.63;;;17.10;;
76262;SDS011;65080;50.908;6.916;2023-02-15T02:41:48;34.80;;;18.07;;
76262;SDS011;65080;50.908;6.916;2023-02-15T02:44:23;30.90;;;17.57;;
76262;SDS011;65080;50.908;6.916;2023-02-15T02:46:55;32.13;;;17.57;;
76262;SDS011;65080;50.908;6.916;2023-02-15T02:49:32;29.90;;;16.33;;
76262;SDS011;65080;50.908;6.916;2023-02-15T02:52:03;33.20;;;17.40;;
76262;SDS011;65080;50.908;6.916;2023-02-15T02:54:33;27.67;;;16.20;;
76262;SDS011;65080;50.908;6.916;2023-02-15T02:57:03;31.87;;;18.03;;
76262;SDS011;65080;50.908;6.916;2023-02-15T02:59:36;33.90;;;18.60;;
76262;SDS011;65080;50.908;6.916;2023-02-15T03:02:09;29.80;;;17.20;;
76262;SDS011;65080;50.908;6.916;2023-02-15T03:04:44;30.23;;;17.80;;
76262;SDS011;65080;50.908;6.916;2023-02-15T03:07:25;30.50;;;17.33;;
76262;SDS011;65080;50.908;6.916;2023-02-15T03:09:55;31.10;;;18.37;;
76262;SDS011;65080;50.908;6.916;2023-02-15T03:12:28;30.53;;;17.60;;
76262;SDS011;65080;50.908;6.916;2023-02-15T03:14:59;31.27;;;17.37;;
76262;SDS011;65080;50.908;6.916;2023-02-15T03:17:31;30.70;;;17.60;;
76262;SDS011;65080;50.908;6.916;2023-02-15T03:20:05;32.50;;;18.20;;
76262;SDS011;65080;50.908;6.916;2023-02-15T03:22:37;31.93;;;17.60;;
76262;SDS011;65080;50.908;6.916;2023-02-15T03:25:11;32.27;;;16.90;;
76262;SDS011;65080;50.908;6.916;2023-02-15T03:27:45;32.93;;;17.80;;
76262;SDS011;65080;50.908;6.916;2023-02-15T03:30:20;31.47;;;19.00;;
76262;SDS011;65080;50.908;6.916;2023-02-15T03:32:50;30.30;;;15.87;;
76262;SDS011;65080;50.908;6.916;2023-02-15T03:35:22;31.40;;;17.33;;
76262;SDS011;65080;50.908;6.916;2023-02-15T03:37:53;28.30;;;16.60;;
76262;SDS011;65080;50.908;6.916;2023-02-15T03:40:28;27.30;;;16.13;;
76262;SDS011;65080;50.908;6.916;2023-02-15T03:43:18;31.80;;;16.43;;
76262;SDS011;65080;50.908;6.916;2023-02-15T03:45:51;27.23;;;15.73;;
76262;SDS011;65080;50.908;6.916;2023-02-15T03:48:26;29.40;;;16.67;;
76262;SDS011;65080;50.908;6.916;2023-02-15T03:51:00;31.10;;;15.80;;
76262;SDS011;65080;50.908;6.916;2023-02-15T03:53:48;27.40;;;16.23;;
76262;SDS011;65080;50.908;6.916;2023-02-15T03:56:18;26.07;;;15.47;;
76262;SDS011;65080;50.908;6.916;2023-02-15T03:58:46;31.40;;;16.30;;
76262;SDS011;65080;50.908;6.916;2023-02-15T04:01:33;32.17;;;18.63;;
76262;SDS011;65080;50.908;6.916;2023-02-15T04:04:25;27.20;;;15.77;;
76262;SDS011;65080;50.908;6.916;2023-02-15T04:07:00;27.47;;;15.77;;
76262;SDS011;65080;50.908;6.916;2023-02-15T04:09:29;32.77;;;18.60;;
76262;SDS011;65080;50.908;6.916;2023-02-15T04:12:15;30.67;;;16.80;;
76262;SDS011;65080;50.908;6.916;2023-02-15T04:14:43;30.23;;;17.63;;
76262;SDS011;65080;50.908;6.916;2023-02-15T04:17:29;34.53;;;17.77;;
76262;SDS011;65080;50.908;6.916;2023-02-15T04:19:57;27.77;;;16.37;;
76262;SDS011;65080;50.908;6.916;2023-02-15T04:22:44;29.37;;;16.03;;
76262;SDS011;65080;50.908;6.916;2023-02-15T04:25:30;33.43;;;17.70;;
76262;SDS011;65080;50.908;6.916;2023-02-15T04:27:58;27.70;;;15.47;;
76262;SDS011;65080;50.908;6.916;2023-02-15T04:30:26;24.53;;;15.20;;
76262;SDS011;65080;50.908;6.916;2023-02-15T04:32:55;29.40;;;16.50;;
76262;SDS011;65080;50.908;6.916;2023-02-15T04:35:23;28.30;;;15.90;;
76262;SDS011;65080;50.908;6.916;2023-02-15T04:37:53;27.23;;;16.30;;
76262;SDS011;65080;50.908;6.916;2023-02-15T04:40:22;23.90;;;14.33;;
76262;SDS011;65080;50.908;6.916;2023-02-15T04:42:50;28.07;;;15.43;;
76262;SDS011;65080;50.908;6.916;2023-02-15T04:45:19;27.23;;;17.43;;
76262;SDS011;65080;50.908;6.916;2023-02-15T04:47:47;31.77;;;16.87;;
76262;SDS011;65080;50.908;6.916;2023-02-15T04:50:15;28.43;;;17.47;;
76262;SDS011;65080;50.908;6.916;2023-02-15T04:52:44;32.40;;;17.23;;
76262;SDS011;65080;50.908;6.916;2023-02-15T04:55:14;29.00;;;16.80;;
76262;SDS011;65080;50.908;6.916;2023-02-15T04:57:42;29.10;;;16.23;;
76262;SDS011;65080;50.908;6.916;2023-02-15T05:00:10;27.47;;;16.30;;
76262;SDS011;65080;50.908;6.916;2023-02-15T05:02:39;28.50;;;16.93;;
76262;SDS011;65080;50.908;6.916;2023-02-15T05:05:07;30.57;;;17.90;;
76262;SDS011;65080;50.908;6.916;2023-02-15T05:07:39;30.50;;;16.67;;
76262;SDS011;65080;50.908;6.916;2023-02-15T05:10:08;26.23;;;15.50;;
76262;SDS011;65080;50.908;6.916;2023-02-15T05:12:38;29.50;;;16.20;;
76262;SDS011;65080;50.908;6.916;2023-02-15T05:15:06;29.60;;;16.77;;
76262;SDS011;65080;50.908;6.916;2023-02-15T05:17:35;29.23;;;16.30;;
76262;SDS011;65080;50.908;6.916;2023-02-15T05:20:04;28.70;;;16.03;;
76262;SDS011;65080;50.908;6.916;2023-02-15T05:22:33;24.97;;;14.97;;
76262;SDS011;65080;50.908;6.916;2023-02-15T05:25:01;28.83;;;16.90;;
76262;SDS011;65080;50.908;6.916;2023-02-15T05:27:49;31.50;;;16.10;;
76262;SDS011;65080;50.908;6.916;2023-02-15T05:30:34;26.43;;;15.03;;
76262;SDS011;65080;50.908;6.916;2023-02-15T05:33:03;27.67;;;15.00;;
76262;SDS011;65080;50.908;6.916;2023-02-15T05:35:31;30.03;;;16.80;;
76262;SDS011;65080;50.908;6.916;2023-02-15T05:37:59;26.57;;;15.13;;
76262;SDS011;65080;50.908;6.916;2023-02-15T05:40:28;26.00;;;14.27;;
76262;SDS011;65080;50.908;6.916;2023-02-15T05:42:57;27.50;;;15.20;;
76262;SDS011;65080;50.908;6.916;2023-02-15T05:45:26;25.63;;;14.00;;
76262;SDS011;65080;50.908;6.916;2023-02-15T05:47:56;30.73;;;15.63;;
76262;SDS011;65080;50.908;6.916;2023-02-15T05:50:25;24.77;;;15.00;;
76262;SDS011;65080;50.908;6.916;2023-02-15T05:52:54;23.80;;;14.07;;
76262;SDS011;65080;50.908;6.916;2023-02-15T05:55:22;29.37;;;15.60;;
76262;SDS011;65080;50.908;6.916;2023-02-15T05:57:50;27.97;;;15.20;;
76262;SDS011;65080;50.908;6.916;2023-02-15T06:00:20;24.10;;;14.90;;
76262;SDS011;65080;50.908;6.916;2023-02-15T06:02:48;28.23;;;14.77;;
76262;SDS011;65080;50.908;6.916;2023-02-15T06:05:16;24.07;;;15.50;;
76262;SDS011;65080;50.908;6.916;2023-02-15T06:07:45;25.80;;;14.90;;
76262;SDS011;65080;50.908;6.916;2023-02-15T06:10:13;23.43;;;15.30;;
76262;SDS011;65080;50.908;6.916;2023-02-15T06:12:41;22.70;;;14.50;;
76262;SDS011;65080;50.908;6.916;2023-02-15T06:15:11;25.33;;;15.07;;
76262;SDS011;65080;50.908;6.916;2023-02-15T06:17:42;24.10;;;13.50;;
76262;SDS011;65080;50.908;6.916;2023-02-15T06:20:11;25.07;;;14.53;;
76262;SDS011;65080;50.908;6.916;2023-02-15T06:22:39;25.53;;;15.23;;
76262;SDS011;65080;50.908;6.916;2023-02-15T06:25:08;24.60;;;14.30;;
76262;SDS011;65080;50.908;6.916;2023-02-15T06:27:37;26.63;;;14.80;;
76262;SDS011;65080;50.908;6.916;2023-02-15T06:30:09;23.33;;;14.07;;
76262;SDS011;65080;50.908;6.916;2023-02-15T06:32:38;27.40;;;14.57;;
76262;SDS011;65080;50.908;6.916;2023-02-15T06:35:08;27.43;;;15.63;;
76262;SDS011;65080;50.908;6.916;2023-02-15T06:37:36;25.60;;;14.90;;
76262;SDS011;65080;50.908;6.916;2023-02-15T06:40:05;26.43;;;15.07;;
76262;SDS011;65080;50.908;6.916;2023-02-15T06:42:34;22.37;;;13.70;;
76262;SDS011;65080;50.908;6.916;2023-02-15T06:45:03;24.27;;;14.13;;
76262;SDS011;65080;50.908;6.916;2023-02-15T06:47:34;22.93;;;13.80;;
76262;SDS011;65080;50.908;6.916;2023-02-15T06:50:02;22.13;;;13.37;;
76262;SDS011;65080;50.908;6.916;2023-02-15T06:52:32;25.20;;;15.03;;
76262;SDS011;65080;50.908;6.916;2023-02-15T06:55:00;24.97;;;15.30;;
76262;SDS011;65080;50.908;6.916;2023-02-15T06:57:29;25.03;;;13.20;;
76262;SDS011;65080;50.908;6.916;2023-02-15T06:59:58;26.57;;;15.37;;
76262;SDS011;65080;50.908;6.916;2023-02-15T07:02:27;22.70;;;13.53;;
76262;SDS011;65080;50.908;6.916;2023-02-15T07:04:56;23.13;;;15.03;;
76262;SDS011;65080;50.908;6.916;2023-02-15T07:07:24;29.13;;;15.37;;
76262;SDS011;65080;50.908;6.916;2023-02-15T07:09:54;22.90;;;12.93;;
76262;SDS011;65080;50.908;6.916;2023-02-15T07:12:22;22.23;;;13.90;;
76262;SDS011;65080;50.908;6.916;2023-02-15T07:15:09;20.30;;;11.90;;
76262;SDS011;65080;50.908;6.916;2023-02-15T07:17:38;23.47;;;13.70;;
76262;SDS011;65080;50.908;6.916;2023-02-15T07:20:07;19.10;;;11.60;;
76262;SDS011;65080;50.908;6.916;2023-02-15T07:22:38;22.77;;;12.90;;
76262;SDS011;65080;50.908;6.916;2023-02-15T07:25:09;24.80;;;12.93;;
76262;SDS011;65080;50.908;6.916;2023-02-15T07:27:38;24.63;;;13.73;;
76262;SDS011;65080;50.908;6.916;2023-02-15T07:30:08;25.93;;;13.47;;
76262;SDS011;65080;50.908;6.916;2023-02-15T07:32:38;21.40;;;13.13;;
76262;SDS011;65080;50.908;6.916;2023-02-15T07:35:30;21.10;;;12.27;;
76262;SDS011;65080;50.908;6.916;2023-02-15T07:37:58;20.33;;;12.57;;
76262;SDS011;65080;50.908;6.916;2023-02-15T07:40:28;23.37;;;13.00;;
76262;SDS011;65080;50.908;6.916;2023-02-15T07:42:57;20.30;;;13.60;;
76262;SDS011;65080;50.908;6.916;2023-02-15T07:45:26;20.00;;;13.33;;
76262;SDS011;65080;50.908;6.916;2023-02-15T07:47:54;21.37;;;13.30;;
76262;SDS011;65080;50.908;6.916;2023-02-15T07:50:22;18.10;;;12.43;;
76262;SDS011;65080;50.908;6.916;2023-02-15T07:52:51;18.97;;;12.40;;
76262;SDS011;65080;50.908;6.916;2023-02-15T07:55:19;19.40;;;12.37;;
76262;SDS011;65080;50.908;6.916;2023-02-15T07:57:49;22.50;;;13.50;;
76262;SDS011;65080;50.908;6.916;2023-02-15T08:00:21;21.50;;;13.73;;
76262;SDS011;65080;50.908;6.916;2023-02-15T08:02:51;19.70;;;12.17;;
76262;SDS011;65080;50.908;6.916;2023-02-15T08:05:35;21.63;;;12.40;;
76262;SDS011;65080;50.908;6.916;2023-02-15T08:08:04;17.70;;;12.00;;
76262;SDS011;65080;50.908;6.916;2023-02-15T08:10:33;21.07;;;13.50;;
76262;SDS011;65080;50.908;6.916;2023-02-15T08:13:22;20.53;;;12.90;;
76262;SDS011;65080;50.908;6.916;2023-02-15T08:15:50;19.60;;;11.27;;
76262;SDS011;65080;50.908;6.916;2023-02-15T08:18:18;19.67;;;12.40;;
76262;SDS011;65080;50.908;6.916;2023-02-15T08:20:48;19.57;;;11.73;;
76262;SDS011;65080;50.908;6.916;2023-02-15T08:23:17;19.10;;;12.47;;
76262;SDS011;65080;50.908;6.916;2023-02-15T08:25:45;19.87;;;12.13;;
76262;SDS011;65080;50.908;6.916;2023-02-15T08:28:14;21.47;;;13.47;;
76262;SDS011;65080;50.908;6.916;2023-02-15T08:30:43;19.30;;;12.33;;
76262;SDS011;65080;50.908;6.916;2023-02-15T08:33:11;17.03;;;11.00;;
76262;SDS011;65080;50.908;6.916;2023-02-15T08:35:40;17.53;;;11.63;;
76262;SDS011;65080;50.908;6.916;2023-02-15T08:38:08;20.90;;;13.77;;
76262;SDS011;65080;50.908;6.916;2023-02-15T08:40:36;22.07;;;13.73;;
76262;SDS011;65080;50.908;6.916;2023-02-15T08:43:05;20.07;;;12.63;;
76262;SDS011;65080;50.908;6.916;2023-02-15T08:45:33;18.77;;;11.90;;
76262;SDS011;65080;50.908;6.916;2023-02-15T08:48:03;19.40;;;12.57;;
76262;SDS011;65080;50.908;6.916;2023-02-15T08:50:32;21.73;;;12.63;;
76262;SDS011;65080;50.908;6.916;2023-02-15T08:53:00;16.40;;;11.53;;
76262;SDS011;65080;50.908;6.916;2023-02-15T08:55:28;21.17;;;12.17;;
76262;SDS011;65080;50.908;6.916;2023-02-15T08:57:56;19.17;;;11.97;;
76262;SDS011;65080;50.908;6.916;2023-02-15T09:00:25;19.60;;;12.20;;
76262;SDS011;65080;50.908;6.916;2023-02-15T09:02:54;17.87;;;12.27;;
76262;SDS011;65080;50.908;6.916;2023-02-15T09:05:24;17.80;;;11.90;;
76262;SDS011;65080;50.908;6.916;2023-02-15T09:07:52;19.33;;;11.60;;
76262;SDS011;65080;50.908;6.916;2023-02-15T09:10:20;22.57;;;12.70;;
76262;SDS011;65080;50.908;6.916;2023-02-15T09:12:49;18.00;;;11.50;;
76262;SDS011;65080;50.908;6.916;2023-02-15T09:15:17;22.17;;;12.47;;
76262;SDS011;65080;50.908;6.916;2023-02-15T09:17:46;16.90;;;11.43;;
76262;SDS011;65080;50.908;6.916;2023-02-15T09:20:14;19.97;;;11.30;;
76262;SDS011;65080;50.908;6.916;2023-02-15T09:22:44;17.67;;;11.07;;
76262;SDS011;65080;50.908;6.916;2023-02-15T09:25:12;19.03;;;12.30;;
76262;SDS011;65080;50.908;6.916;2023-02-15T09:27:41;17.83;;;11.63;;
76262;SDS011;65080;50.908;6.916;2023-02-15T09:30:10;17.37;;;11.80;;
76262;SDS011;65080;50.908;6.916;2023-02-15T09:32:39;14.30;;;10.53;;
76262;SDS011;65080;50.908;6.916;2023-02-15T09:35:07;17.23;;;11.73;;
76262;SDS011;65080;50.908;6.916;2023-02-15T09:37:35;16.93;;;11.13;;
76262;SDS011;65080;50.908;6.916;2023-02-15T09:40:05;15.53;;;10.70;;
76262;SDS011;65080;50.908;6.916;2023-02-15T09:45:38;18.90;;;12.30;;
76262;SDS011;65080;50.908;6.916;2023-02-15T09:48:17;17.80;;;11.50;;
76262;SDS011;65080;50.908;6.916;2023-02-15T09:51:04;18.07;;;11.07;;
76262;SDS011;65080;50.908;6.916;2023-02-15T09:53:50;21.70;;;11.67;;
76262;SDS011;65080;50.908;6.916;2023-02-15T09:56:33;15.27;;;10.77;;
76262;SDS011;65080;50.908;6.916;2023-02-15T09:59:08;15.80;;;11.40;;
76262;SDS011;65080;50.908;6.916;2023-02-15T10:01:44;14.10;;;10.13;;
76262;SDS011;65080;50.908;6.916;2023-02-15T10:04:24;17.03;;;10.43;;
76262;SDS011;65080;50.908;6.916;2023-02-15T10:07:13;16.23;;;10.30;;
76262;SDS011;65080;50.908;6.916;2023-02-15T10:09:55;15.97;;;11.03;;
76262;SDS011;65080;50.908;6.916;2023-02-15T10:12:39;14.97;;;10.40;;
76262;SDS011;65080;50.908;6.916;2023-02-15T10:15:27;16.47;;;10.40;;
76262;SDS011;65080;50.908;6.916;2023-02-15T10:18:24;14.30;;;10.23;;
76262;SDS011;65080;50.908;6.916;2023-02-15T10:21:10;17.50;;;10.50;;
76262;SDS011;65080;50.908;6.916;2023-02-15T10:23:50;17.10;;;11.17;;
76262;SDS011;65080;50.908;6.916;2023-02-15T10:26:32;14.23;;;10.00;;
76262;SDS011;65080;50.908;6.916;2023-02-15T10:29:11;18.10;;;10.27;;
76262;SDS011;65080;50.908;6.916;2023-02-15T10:31:48;16.90;;;11.60;;
76262;SDS011;65080;50.908;6.916;2023-02-15T10:34:20;16.33;;;10.80;;
76262;SDS011;65080;50.908;6.916;2023-02-15T10:37:01;17.77;;;11.60;;
76262;SDS011;65080;50.908;6.916;2023-02-15T10:39:46;17.27;;;11.37;;
76262;SDS011;65080;50.908;6.916;2023-02-15T10:42:24;16.73;;;10.87;;
76262;SDS011;65080;50.908;6.916;2023-02-15T10:45:06;15.43;;;11.43;;
76262;SDS011;65080;50.908;6.916;2023-02-15T10:50:41;17.20;;;11.07;;
76262;SDS011;65080;50.908;6.916;2023-02-15T10:53:28;15.90;;;10.67;;
76262;SDS011;65080;50.908;6.916;2023-02-15T10:56:15;17.83;;;11.23;;
76262;SDS011;65080;50.908;6.916;2023-02-15T10:58:56;17.53;;;10.67;;
76262;SDS011;65080;50.908;6.916;2023-02-15T11:01:45;15.57;;;11.20;;
76262;SDS011;65080;50.908;6.916;2023-02-15T11:07:14;20.90;;;10.27;;
76262;SDS011;65080;50.908;6.916;2023-02-15T11:09:47;15.57;;;10.50;;
76262;SDS011;65080;50.908;6.916;2023-02-15T11:12:20;16.00;;;11.67;;
76262;SDS011;65080;50.908;6.916;2023-02-15T11:14:52;20.20;;;10.67;;
76262;SDS011;65080;50.908;6.916;2023-02-15T11:17:28;18.23;;;11.57;;
76262;SDS011;65080;50.908;6.916;2023-02-15T11:20:02;15.80;;;11.40;;
76262;SDS011;65080;50.908;6.916;2023-02-15T11:22:42;16.37;;;11.53;;
76262;SDS011;65080;50.908;6.916;2023-02-15T11:25:17;15.77;;;10.73;;
76262;SDS011;65080;50.908;6.916;2023-02-15T11:27:49;18.07;;;11.90;;
76262;SDS011;65080;50.908;6.916;2023-02-15T11:30:19;21.33;;;11.67;;
76262;SDS011;65080;50.908;6.916;2023-02-15T11:32:51;16.47;;;10.53;;
76262;SDS011;65080;50.908;6.916;2023-02-15T11:35:24;16.80;;;10.93;;
76262;SDS011;65080;50.908;6.916;2023-02-15T11:37:57;19.20;;;10.47;;
76262;SDS011;65080;50.908;6.916;2023-02-15T11:40:32;15.47;;;10.80;;
76262;SDS011;65080;50.908;6.916;2023-02-15T11:43:04;16.23;;;12.20;;
76262;SDS011;65080;50.908;6.916;2023-02-15T11:45:40;20.60;;;10.83;;
76262;SDS011;65080;50.908;6.916;2023-02-15T11:48:12;15.10;;;10.87;;
76262;SDS011;65080;50.908;6.916;2023-02-15T11:50:42;15.37;;;10.50;;
76262;SDS011;65080;50.908;6.916;2023-02-15T11:53:12;14.77;;;10.70;;
76262;SDS011;65080;50.908;6.916;2023-02-15T11:55:43;16.47;;;10.20;;
76262;SDS011;65080;50.908;6.916;2023-02-15T11:58:15;15.50;;;11.27;;
76262;SDS011;65080;50.908;6.916;2023-02-15T12:00:52;15.00;;;9.70;;
76262;SDS011;65080;50.908;6.916;2023-02-15T12:03:27;16.00;;;11.10;;
76262;SDS011;65080;50.908;6.916;2023-02-15T12:06:04;14.60;;;10.57;;
76262;SDS011;65080;50.908;6.916;2023-02-15T12:08:36;15.40;;;10.50;;
76262;SDS011;65080;50.908;6.916;2023-02-15T12:11:07;16.40;;;10.90;;
76262;SDS011;65080;50.908;6.916;2023-02-15T12:13:53;15.30;;;10.80;;
76262;SDS011;65080;50.908;6.916;2023-02-15T12:16:23;17.00;;;11.00;;
76262;SDS011;65080;50.908;6.916;2023-02-15T12:18:54;15.67;;;11.97;;
76262;SDS011;65080;50.908;6.916;2023-02-15T12:21:26;16.70;;;11.30;;
76262;SDS011;65080;50.908;6.916;2023-02-15T12:23:57;14.17;;;9.80;;
76262;SDS011;65080;50.908;6.916;2023-02-15T12:26:31;17.20;;;10.50;;
76262;SDS011;65080;50.908;6.916;2023-02-15T12:29:01;15.20;;;10.70;;
76262;SDS011;65080;50.908;6.916;2023-02-15T12:31:40;20.30;;;10.30;;
76262;SDS011;65080;50.908;6.916;2023-02-15T12:34:13;20.60;;;11.47;;
76262;SDS011;65080;50.908;6.916;2023-02-15T12:36:49;16.70;;;10.90;;
76262;SDS011;65080;50.908;6.916;2023-02-15T12:39:24;17.97;;;11.80;;
76262;SDS011;65080;50.908;6.916;2023-02-15T12:41:57;16.07;;;11.03;;
76262;SDS011;65080;50.908;6.916;2023-02-15T12:44:28;17.03;;;11.03;;
76262;SDS011;65080;50.908;6.916;2023-02-15T12:46:59;18.40;;;11.30;;
76262;SDS011;65080;50.908;6.916;2023-02-15T12:49:30;14.03;;;10.43;;
76262;SDS011;65080;50.908;6.916;2023-02-15T12:52:00;15.37;;;10.23;;
76262;SDS011;65080;50.908;6.916;2023-02-15T12:54:31;14.33;;;9.67;;
76262;SDS011;65080;50.908;6.916;2023-02-15T12:59:58;13.53;;;10.17;;
76262;SDS011;65080;50.908;6.916;2023-02-15T13:02:29;16.43;;;10.40;;
76262;SDS011;65080;50.908;6.916;2023-02-15T13:05:07;14.77;;;10.60;;
76262;SDS011;65080;50.908;6.916;2023-02-15T13:07:45;18.30;;;11.07;;
76262;SDS011;65080;50.908;6.916;2023-02-15T13:10:23;15.83;;;10.67;;
76262;SDS011;65080;50.908;6.916;2023-02-15T13:12:54;17.10;;;10.40;;
76262;SDS011;65080;50.908;6.916;2023-02-15T13:15:25;18.13;;;11.60;;
76262;SDS011;65080;50.908;6.916;2023-02-15T13:18:05;14.70;;;10.53;;
76262;SDS011;65080;50.908;6.916;2023-02-15T13:20:41;15.70;;;10.23;;
76262;SDS011;65080;50.908;6.916;2023-02-15T13:23:16;16.70;;;10.40;;
76262;SDS011;65080;50.908;6.916;2023-02-15T13:25:54;16.63;;;11.23;;
76262;SDS011;65080;50.908;6.916;2023-02-15T13:28:27;15.23;;;10.90;;
76262;SDS011;65080;50.908;6.916;2023-02-15T13:31:04;16.97;;;11.03;;
76262;SDS011;65080;50.908;6.916;2023-02-15T13:33:40;14.00;;;10.03;;
76262;SDS011;65080;50.908;6.916;2023-02-15T13:36:15;12.90;;;9.20;;
76262;SDS011;65080;50.908;6.916;2023-02-15T13:41:50;14.53;;;10.80;;
76262;SDS011;65080;50.908;6.916;2023-02-15T13:44:27;15.63;;;10.50;;
76262;SDS011;65080;50.908;6.916;2023-02-15T13:47:15;15.80;;;10.23;;
76262;SDS011;65080;50.908;6.916;2023-02-15T13:49:53;15.73;;;10.30;;
76262;SDS011;65080;50.908;6.916;2023-02-15T13:52:33;13.70;;;10.27;;
76262;SDS011;65080;50.908;6.916;2023-02-15T13:55:20;15.87;;;10.03;;
76262;SDS011;65080;50.908;6.916;2023-02-15T13:58:04;12.70;;;9.63;;
76262;SDS011;65080;50.908;6.916;2023-02-15T14:01:08;13.70;;;10.67;;
76262;SDS011;65080;50.908;6.916;2023-02-15T14:03:44;13.73;;;10.10;;
76262;SDS011;65080;50.908;6.916;2023-02-15T14:06:36;15.97;;;11.83;;
76262;SDS011;65080;50.908;6.916;2023-02-15T14:09:18;17.20;;;11.10;;
76262;SDS011;65080;50.908;6.916;2023-02-15T14:11:57;13.37;;;9.93;;
76262;SDS011;65080;50.908;6.916;2023-02-15T14:14:53;13.53;;;10.70;;
76262;SDS011;65080;50.908;6.916;2023-02-15T14:17:38;15.67;;;9.83;;
76262;SDS011;65080;50.908;6.916;2023-02-15T14:20:17;17.90;;;10.60;;
76262;SDS011;65080;50.908;6.916;2023-02-15T14:22:49;13.00;;;10.20;;
76262;SDS011;65080;50.908;6.916;2023-02-15T14:25:30;17.83;;;10.40;;
76262;SDS011;65080;50.908;6.916;2023-02-15T14:28:07;14.33;;;10.50;;
76262;SDS011;65080;50.908;6.916;2023-02-15T14:30:40;13.60;;;10.40;;
76262;SDS011;65080;50.908;6.916;2023-02-15T14:33:19;15.30;;;11.60;;
76262;SDS011;65080;50.908;6.916;2023-02-15T14:36:00;19.07;;;10.37;;
76262;SDS011;65080;50.908;6.916;2023-02-15T14:38:36;16.00;;;10.47;;
76262;SDS011;65080;50.908;6.916;2023-02-15T14:41:36;15.17;;;9.60;;
76262;SDS011;65080;50.908;6.916;2023-02-15T14:44:12;14.37;;;9.87;;
76262;SDS011;65080;50.908;6.916;2023-02-15T14:46:46;15.73;;;11.07;;
76262;SDS011;65080;50.908;6.916;2023-02-15T14:49:19;14.93;;;9.67;;
76262;SDS011;65080;50.908;6.916;2023-02-15T14:51:56;14.23;;;10.50;;
76262;SDS011;65080;50.908;6.916;2023-02-15T14:57:31;12.57;;;10.20;;
76262;SDS011;65080;50.908;6.916;2023-02-15T15:03:16;18.47;;;11.90;;
76262;SDS011;65080;50.908;6.916;2023-02-15T15:05:49;18.23;;;11.70;;
76262;SDS011;65080;50.908;6.916;2023-02-15T15:08:21;15.63;;;11.17;;
76262;SDS011;65080;50.908;6.916;2023-02-15T15:10:54;15.60;;;10.93;;
76262;SDS011;65080;50.908;6.916;2023-02-15T15:22:25;17.63;;;12.07;;
76262;SDS011;65080;50.908;6.916;2023-02-15T15:24:54;16.93;;;11.93;;
76262;SDS011;65080;50.908;6.916;2023-02-15T15:27:45;16.83;;;10.90;;
76262;SDS011;65080;50.908;6.916;2023-02-15T15:33:28;17.83;;;11.03;;